PWSweather.com
Personal Weather Stations
Station Observations
KNYSYRAC2
Fairmount Hills, Fairmount, NY 13219

Fairmount HillsFairmount, NY 13219

Lat: 43.03602, Lon: -76.247151

Elevation: 663

Station Type: Ambient Weather WS-2080

http://weather.cerchia.com

High Low Average
Temperature 42.2°F5.7°C 31.0°F-0.6°C 37.8°F3.2°C
Dew Point 38.9°F3.8°C 23.2°F-4.9°C 30.9°F-0.6°C
Winds 5.3 mph 8.5 kmh 0.3 mph 0.5 kmh 2.0 mph E3.2 kmh E
Wind Gusts 17.1 mph27.5 kmh 3.9 mph6.3 kmh 8.0 mph12.9 kmh
Humidity 90% 62% 76%
Pressure 29.84 in1010.5 mb 29.71 in1006.1 mb -
Precipitation 0.00 in0.0 mm - -
Hour Temp Dew Point Humidity Winds Wind Gusts Pressure Precip Precip Rate Daily Precip Total
12:00 AM 42.2°F5.7°C 38.9°F3.8°C 88% 1.6 mph E2.6 kmh E 3.9 mph6.3 kmh 29.75 in1007.5 mb 0.00 in0.0 mm 0.00 in0.0 mm 0.00 in0.0 mm
12:15 AM 42.2°F5.7°C 38.9°F3.8°C 88% 1.4 mph ENE2.3 kmh ENE 3.9 mph6.3 kmh 29.75 in1007.5 mb 0.00 in0.0 mm 0.00 in0.0 mm 0.00 in0.0 mm
12:30 AM 42.0°F5.6°C 38.7°F3.7°C 88% 1.5 mph E2.4 kmh E 4.8 mph7.7 kmh 29.76 in1007.8 mb 0.00 in0.0 mm 0.00 in0.0 mm 0.00 in0.0 mm
12:45 AM 42.0°F5.6°C 38.7°F3.7°C 88% 1.7 mph E2.7 kmh E 5.6 mph9.0 kmh 29.77 in1008.1 mb 0.00 in0.0 mm 0.00 in0.0 mm 0.00 in0.0 mm
01:00 AM 41.8°F5.4°C 38.2°F3.4°C 87% 1.1 mph E1.8 kmh E 4.8 mph7.7 kmh 29.77 in1008.1 mb 0.00 in0.0 mm 0.00 in0.0 mm 0.00 in0.0 mm
01:15 AM 41.8°F5.4°C 38.2°F3.4°C 87% 1.4 mph ENE2.3 kmh ENE 3.9 mph6.3 kmh 29.77 in1008.1 mb 0.00 in0.0 mm 0.00 in0.0 mm 0.00 in0.0 mm
01:30 AM 41.8°F5.4°C 38.2°F3.4°C 87% 0.5 mph ENE0.8 kmh ENE 3.9 mph6.3 kmh 29.78 in1008.5 mb 0.00 in0.0 mm 0.00 in0.0 mm 0.00 in0.0 mm
01:45 AM 41.6°F5.3°C 38.3°F3.5°C 88% 0.7 mph E1.1 kmh E 4.8 mph7.7 kmh 29.79 in1008.8 mb 0.00 in0.0 mm 0.00 in0.0 mm 0.00 in0.0 mm
02:00 AM 41.6°F5.3°C 38.3°F3.5°C 88% 1.0 mph E1.6 kmh E 3.9 mph6.3 kmh 29.78 in1008.5 mb 0.00 in0.0 mm 0.00 in0.0 mm 0.00 in0.0 mm
02:15 AM 41.6°F5.3°C 38.3°F3.5°C 88% 0.9 mph E1.4 kmh E 3.9 mph6.3 kmh 29.79 in1008.8 mb 0.00 in0.0 mm 0.00 in0.0 mm 0.00 in0.0 mm
02:30 AM 41.4°F5.2°C 38.2°F3.4°C 88% 1.2 mph E1.9 kmh E 3.9 mph6.3 kmh 29.79 in1008.8 mb 0.00 in0.0 mm 0.00 in0.0 mm 0.00 in0.0 mm
02:45 AM 41.1°F5.1°C 37.5°F3.1°C 87% 1.6 mph E2.6 kmh E 5.6 mph9.0 kmh 29.80 in1009.1 mb 0.00 in0.0 mm 0.00 in0.0 mm 0.00 in0.0 mm
03:00 AM 40.9°F4.9°C 37.3°F2.9°C 87% 1.8 mph E2.9 kmh E 5.6 mph9.0 kmh 29.80 in1009.1 mb 0.00 in0.0 mm 0.00 in0.0 mm 0.00 in0.0 mm
03:15 AM 40.9°F4.9°C 37.3°F2.9°C 87% 2.1 mph E3.4 kmh E 7.5 mph12.1 kmh 29.79 in1008.8 mb 0.00 in0.0 mm 0.00 in0.0 mm 0.00 in0.0 mm
03:30 AM 40.7°F4.8°C 37.2°F2.9°C 87% 1.6 mph E2.6 kmh E 6.7 mph10.8 kmh 29.79 in1008.8 mb 0.00 in0.0 mm 0.00 in0.0 mm 0.00 in0.0 mm
03:45 AM 40.4°F4.7°C 36.8°F2.7°C 87% 1.3 mph ENE2.1 kmh ENE 5.6 mph9.0 kmh 29.79 in1008.8 mb 0.00 in0.0 mm 0.00 in0.0 mm 0.00 in0.0 mm
04:00 AM 40.0°F4.4°C 36.7°F2.6°C 88% 1.4 mph ENE2.3 kmh ENE 4.8 mph7.7 kmh 29.79 in1008.8 mb 0.00 in0.0 mm 0.00 in0.0 mm 0.00 in0.0 mm
04:15 AM 39.6°F4.2°C 36.9°F2.7°C 90% 1.4 mph E2.3 kmh E 4.8 mph7.7 kmh 29.80 in1009.1 mb 0.00 in0.0 mm 0.00 in0.0 mm 0.00 in0.0 mm
04:30 AM 39.5°F4.2°C 36.8°F2.7°C 90% 1.0 mph E1.6 kmh E 5.6 mph9.0 kmh 29.79 in1008.8 mb 0.00 in0.0 mm 0.00 in0.0 mm 0.00 in0.0 mm
04:45 AM 39.3°F4.1°C 36.6°F2.6°C 90% 1.4 mph E2.3 kmh E 6.7 mph10.8 kmh 29.79 in1008.8 mb 0.00 in0.0 mm 0.00 in0.0 mm 0.00 in0.0 mm
05:00 AM 39.1°F3.9°C 36.4°F2.4°C 90% 1.5 mph E2.4 kmh E 6.7 mph10.8 kmh 29.79 in1008.8 mb 0.00 in0.0 mm 0.00 in0.0 mm 0.00 in0.0 mm
05:15 AM 38.9°F3.8°C 36.0°F2.2°C 89% 1.1 mph ENE1.8 kmh ENE 3.9 mph6.3 kmh 29.80 in1009.1 mb 0.00 in0.0 mm 0.00 in0.0 mm 0.00 in0.0 mm
05:30 AM 38.9°F3.8°C 36.0°F2.2°C 89% 0.9 mph E1.4 kmh E 3.9 mph6.3 kmh 29.80 in1009.1 mb 0.00 in0.0 mm 0.00 in0.0 mm 0.00 in0.0 mm
05:45 AM 38.7°F3.7°C 35.8°F2.1°C 89% 0.6 mph E1.0 kmh E 3.9 mph6.3 kmh 29.80 in1009.1 mb 0.00 in0.0 mm 0.00 in0.0 mm 0.00 in0.0 mm
06:00 AM 38.7°F3.7°C 35.5°F1.9°C 88% 0.6 mph E1.0 kmh E 3.9 mph6.3 kmh 29.80 in1009.1 mb 0.00 in0.0 mm 0.00 in0.0 mm 0.00 in0.0 mm
06:15 AM 38.7°F3.7°C 35.5°F1.9°C 88% 0.3 mph ENE0.5 kmh ENE 3.9 mph6.3 kmh 29.81 in1009.5 mb 0.00 in0.0 mm 0.00 in0.0 mm 0.00 in0.0 mm
06:30 AM 38.9°F3.8°C 35.7°F2.1°C 88% 0.6 mph E1.0 kmh E 3.9 mph6.3 kmh 29.82 in1009.8 mb 0.00 in0.0 mm 0.00 in0.0 mm 0.00 in0.0 mm
06:45 AM 39.6°F4.2°C 36.4°F2.4°C 88% 1.9 mph E3.1 kmh E 7.5 mph12.1 kmh 29.82 in1009.8 mb 0.00 in0.0 mm 0.00 in0.0 mm 0.00 in0.0 mm
07:00 AM 40.2°F4.6°C 36.3°F2.4°C 86% 1.9 mph E3.1 kmh E 11.5 mph18.5 kmh 29.82 in1009.8 mb 0.00 in0.0 mm 0.00 in0.0 mm 0.00 in0.0 mm
07:15 AM 40.2°F4.6°C 35.7°F2.1°C 84% 1.5 mph ESE2.4 kmh ESE 7.5 mph12.1 kmh 29.80 in1009.1 mb 0.00 in0.0 mm 0.00 in0.0 mm 0.00 in0.0 mm
07:30 AM 40.2°F4.6°C 35.4°F1.9°C 83% 1.8 mph ENE2.9 kmh ENE 9.5 mph15.3 kmh 29.82 in1009.8 mb 0.00 in0.0 mm 0.00 in0.0 mm 0.00 in0.0 mm
07:45 AM 39.8°F4.3°C 34.8°F1.6°C 82% 2.5 mph E4.0 kmh E 7.5 mph12.1 kmh 29.82 in1009.8 mb 0.00 in0.0 mm 0.00 in0.0 mm 0.00 in0.0 mm
08:00 AM 39.8°F4.3°C 34.5°F1.4°C 81% 2.0 mph E3.2 kmh E 7.5 mph12.1 kmh 29.82 in1009.8 mb 0.00 in0.0 mm 0.00 in0.0 mm 0.00 in0.0 mm
08:15 AM 39.6°F4.2°C 34.3°F1.3°C 81% 2.1 mph E3.4 kmh E 7.5 mph12.1 kmh 29.83 in1010.2 mb 0.00 in0.0 mm 0.00 in0.0 mm 0.00 in0.0 mm
08:30 AM 39.6°F4.2°C 34.3°F1.3°C 81% 2.0 mph E3.2 kmh E 7.5 mph12.1 kmh 29.82 in1009.8 mb 0.00 in0.0 mm 0.00 in0.0 mm 0.00 in0.0 mm
08:45 AM 39.6°F4.2°C 34.0°F1.1°C 80% 1.7 mph E2.7 kmh E 4.8 mph7.7 kmh 29.82 in1009.8 mb 0.00 in0.0 mm 0.00 in0.0 mm 0.00 in0.0 mm
09:00 AM 39.8°F4.3°C 34.2°F1.2°C 80% 1.5 mph E2.4 kmh E 4.8 mph7.7 kmh 29.82 in1009.8 mb 0.00 in0.0 mm 0.00 in0.0 mm 0.00 in0.0 mm
09:15 AM 40.0°F4.4°C 33.7°F0.9°C 78% 1.7 mph E2.7 kmh E 7.5 mph12.1 kmh 29.81 in1009.5 mb 0.00 in0.0 mm 0.00 in0.0 mm 0.00 in0.0 mm
09:30 AM 40.0°F4.4°C 33.4°F0.8°C 77% 2.8 mph E4.5 kmh E 8.7 mph14.0 kmh 29.83 in1010.2 mb 0.00 in0.0 mm 0.00 in0.0 mm 0.00 in0.0 mm
09:45 AM 40.0°F4.4°C 33.0°F0.6°C 76% 2.1 mph E3.4 kmh E 6.7 mph10.8 kmh 29.83 in1010.2 mb 0.00 in0.0 mm 0.00 in0.0 mm 0.00 in0.0 mm
10:00 AM 39.8°F4.3°C 33.2°F0.7°C 77% 1.3 mph E2.1 kmh E 6.7 mph10.8 kmh 29.84 in1010.5 mb 0.00 in0.0 mm 0.00 in0.0 mm 0.00 in0.0 mm
10:15 AM 39.5°F4.2°C 32.5°F0.3°C 76% 2.6 mph ESE4.2 kmh ESE 9.5 mph15.3 kmh 29.84 in1010.5 mb 0.00 in0.0 mm 0.00 in0.0 mm 0.00 in0.0 mm
10:30 AM 39.5°F4.2°C 32.5°F0.3°C 76% 1.8 mph ENE2.9 kmh ENE 4.8 mph7.7 kmh 29.84 in1010.5 mb 0.00 in0.0 mm 0.00 in0.0 mm 0.00 in0.0 mm
10:45 AM 39.5°F4.2°C 32.5°F0.3°C 76% 1.3 mph E2.1 kmh E 5.6 mph9.0 kmh 29.84 in1010.5 mb 0.00 in0.0 mm 0.00 in0.0 mm 0.00 in0.0 mm
11:00 AM 39.3°F4.1°C 32.3°F0.2°C 76% 1.4 mph E2.3 kmh E 5.6 mph9.0 kmh 29.83 in1010.2 mb 0.00 in0.0 mm 0.00 in0.0 mm 0.00 in0.0 mm
11:15 AM 39.5°F4.2°C 32.5°F0.3°C 76% 1.4 mph E2.3 kmh E 4.8 mph7.7 kmh 29.83 in1010.2 mb 0.00 in0.0 mm 0.00 in0.0 mm 0.00 in0.0 mm
11:30 AM 40.0°F4.4°C 32.4°F0.2°C 74% 1.7 mph E2.7 kmh E 8.7 mph14.0 kmh 29.82 in1009.8 mb 0.00 in0.0 mm 0.00 in0.0 mm 0.00 in0.0 mm
11:45 AM 40.0°F4.4°C 32.4°F0.2°C 74% 1.5 mph NE2.4 kmh NE 8.7 mph14.0 kmh 29.81 in1009.5 mb 0.00 in0.0 mm 0.00 in0.0 mm 0.00 in0.0 mm
12:00 PM 40.4°F4.7°C 32.0°F0.0°C 72% 1.6 mph E2.6 kmh E 4.8 mph7.7 kmh 29.81 in1009.5 mb 0.00 in0.0 mm 0.00 in0.0 mm 0.00 in0.0 mm
12:15 PM 40.7°F4.8°C 32.0°F0.0°C 71% 1.6 mph E2.6 kmh E 11.5 mph18.5 kmh 29.81 in1009.5 mb 0.00 in0.0 mm 0.00 in0.0 mm 0.00 in0.0 mm
12:30 PM 39.8°F4.3°C 30.8°F-0.7°C 70% 2.4 mph E3.9 kmh E 9.5 mph15.3 kmh 29.81 in1009.5 mb 0.00 in0.0 mm 0.00 in0.0 mm 0.00 in0.0 mm
12:45 PM 39.1°F3.9°C 30.5°F-0.8°C 71% 2.6 mph E4.2 kmh E 11.5 mph18.5 kmh 29.80 in1009.1 mb 0.00 in0.0 mm 0.00 in0.0 mm 0.00 in0.0 mm
01:00 PM 38.9°F3.8°C 30.3°F-0.9°C 71% 3.4 mph E5.5 kmh E 11.5 mph18.5 kmh 29.79 in1008.8 mb 0.00 in0.0 mm 0.00 in0.0 mm 0.00 in0.0 mm
01:15 PM 38.6°F3.7°C 29.6°F-1.3°C 70% 3.9 mph E6.3 kmh E 12.3 mph19.8 kmh 29.77 in1008.1 mb 0.00 in0.0 mm 0.00 in0.0 mm 0.00 in0.0 mm
01:30 PM 38.0°F3.3°C 29.4°F-1.4°C 71% 4.1 mph ENE6.6 kmh ENE 14.3 mph23.0 kmh 29.77 in1008.1 mb 0.00 in0.0 mm 0.00 in0.0 mm 0.00 in0.0 mm
01:45 PM 37.7°F3.2°C 28.4°F-2.0°C 69% 5.3 mph E8.5 kmh E 13.4 mph21.6 kmh 29.77 in1008.1 mb 0.00 in0.0 mm 0.00 in0.0 mm 0.00 in0.0 mm
02:00 PM 37.7°F3.2°C 28.8°F-1.8°C 70% 3.4 mph E5.5 kmh E 17.1 mph27.5 kmh 29.76 in1007.8 mb 0.00 in0.0 mm 0.00 in0.0 mm 0.00 in0.0 mm
02:15 PM 37.8°F3.2°C 28.6°F-1.9°C 69% 4.1 mph E6.6 kmh E 16.2 mph26.1 kmh 29.76 in1007.8 mb 0.00 in0.0 mm 0.00 in0.0 mm 0.00 in0.0 mm
02:30 PM 37.8°F3.2°C 28.6°F-1.9°C 69% 3.3 mph E5.3 kmh E 9.5 mph15.3 kmh 29.75 in1007.5 mb 0.00 in0.0 mm 0.00 in0.0 mm 0.00 in0.0 mm
02:45 PM 37.7°F3.2°C 28.0°F-2.2°C 68% 3.9 mph E6.3 kmh E 14.3 mph23.0 kmh 29.76 in1007.8 mb 0.00 in0.0 mm 0.00 in0.0 mm 0.00 in0.0 mm
03:00 PM 37.3°F2.9°C 27.7°F-2.4°C 68% 3.6 mph E5.8 kmh E 12.3 mph19.8 kmh 29.77 in1008.1 mb 0.00 in0.0 mm 0.00 in0.0 mm 0.00 in0.0 mm
03:15 PM 37.3°F2.9°C 27.7°F-2.4°C 68% 3.2 mph E5.1 kmh E 11.5 mph18.5 kmh 29.77 in1008.1 mb 0.00 in0.0 mm 0.00 in0.0 mm 0.00 in0.0 mm
03:30 PM 37.1°F2.8°C 27.5°F-2.5°C 68% 2.3 mph NE3.7 kmh NE 10.3 mph16.6 kmh 29.77 in1008.1 mb 0.00 in0.0 mm 0.00 in0.0 mm 0.00 in0.0 mm
03:45 PM 36.8°F2.7°C 26.8°F-2.9°C 67% 3.3 mph E5.3 kmh E 13.4 mph21.6 kmh 29.76 in1007.8 mb 0.00 in0.0 mm 0.00 in0.0 mm 0.00 in0.0 mm
04:00 PM 36.4°F2.4°C 26.5°F-3.1°C 67% 3.7 mph E6.0 kmh E 11.5 mph18.5 kmh 29.76 in1007.8 mb 0.00 in0.0 mm 0.00 in0.0 mm 0.00 in0.0 mm
04:15 PM 36.0°F2.2°C 24.7°F-4.1°C 63% 3.2 mph E5.1 kmh E 9.5 mph15.3 kmh 29.76 in1007.8 mb 0.00 in0.0 mm 0.00 in0.0 mm 0.00 in0.0 mm
04:30 PM 35.9°F2.2°C 24.5°F-4.2°C 63% 3.2 mph E5.1 kmh E 14.3 mph23.0 kmh 29.78 in1008.5 mb 0.00 in0.0 mm 0.00 in0.0 mm 0.00 in0.0 mm
04:45 PM 35.7°F2.1°C 24.3°F-4.3°C 63% 3.4 mph E5.5 kmh E 11.5 mph18.5 kmh 29.77 in1008.1 mb 0.00 in0.0 mm 0.00 in0.0 mm 0.00 in0.0 mm
05:00 PM 35.5°F1.9°C 24.1°F-4.4°C 63% 2.6 mph E4.2 kmh E 8.7 mph14.0 kmh 29.77 in1008.1 mb 0.00 in0.0 mm 0.00 in0.0 mm 0.00 in0.0 mm
05:15 PM 35.3°F1.8°C 24.0°F-4.4°C 63% 3.6 mph ENE5.8 kmh ENE 13.4 mph21.6 kmh 29.76 in1007.8 mb 0.00 in0.0 mm 0.00 in0.0 mm 0.00 in0.0 mm
05:30 PM 35.1°F1.7°C 23.4°F-4.8°C 62% 3.6 mph E5.8 kmh E 13.4 mph21.6 kmh 29.77 in1008.1 mb 0.00 in0.0 mm 0.00 in0.0 mm 0.00 in0.0 mm
05:45 PM 35.1°F1.7°C 23.4°F-4.8°C 62% 2.3 mph E3.7 kmh E 6.7 mph10.8 kmh 29.76 in1007.8 mb 0.00 in0.0 mm 0.00 in0.0 mm 0.00 in0.0 mm
06:00 PM 35.1°F1.7°C 23.4°F-4.8°C 62% 2.2 mph E3.5 kmh E 8.7 mph14.0 kmh 29.78 in1008.5 mb 0.00 in0.0 mm 0.00 in0.0 mm 0.00 in0.0 mm
06:15 PM 35.0°F1.7°C 23.2°F-4.9°C 62% 2.4 mph E3.9 kmh E 7.5 mph12.1 kmh 29.78 in1008.5 mb 0.00 in0.0 mm 0.00 in0.0 mm 0.00 in0.0 mm
06:30 PM 35.0°F1.7°C 23.2°F-4.9°C 62% 1.6 mph E2.6 kmh E 9.5 mph15.3 kmh 29.79 in1008.8 mb 0.00 in0.0 mm 0.00 in0.0 mm 0.00 in0.0 mm
06:45 PM 35.0°F1.7°C 23.6°F-4.7°C 63% 2.6 mph E4.2 kmh E 7.5 mph12.1 kmh 29.78 in1008.5 mb 0.00 in0.0 mm 0.00 in0.0 mm 0.00 in0.0 mm
07:00 PM 34.8°F1.6°C 23.5°F-4.7°C 63% 2.2 mph E3.5 kmh E 9.5 mph15.3 kmh 29.78 in1008.5 mb 0.00 in0.0 mm 0.00 in0.0 mm 0.00 in0.0 mm
07:15 PM 34.8°F1.6°C 23.5°F-4.7°C 63% 2.3 mph E3.7 kmh E 6.7 mph10.8 kmh 29.79 in1008.8 mb 0.00 in0.0 mm 0.00 in0.0 mm 0.00 in0.0 mm
07:30 PM 34.8°F1.6°C 23.5°F-4.7°C 63% 1.5 mph ENE2.4 kmh ENE 4.8 mph7.7 kmh 29.78 in1008.5 mb 0.00 in0.0 mm 0.00 in0.0 mm 0.00 in0.0 mm
07:45 PM 34.6°F1.4°C 23.3°F-4.8°C 63% 1.4 mph E2.3 kmh E 6.7 mph10.8 kmh 29.78 in1008.5 mb 0.00 in0.0 mm 0.00 in0.0 mm 0.00 in0.0 mm
08:00 PM 34.6°F1.4°C 23.3°F-4.8°C 63% 1.9 mph ENE3.1 kmh ENE 7.5 mph12.1 kmh 29.77 in1008.1 mb 0.00 in0.0 mm 0.00 in0.0 mm 0.00 in0.0 mm
08:15 PM 34.6°F1.4°C 23.3°F-4.8°C 63% 1.8 mph E2.9 kmh E 6.7 mph10.8 kmh 29.77 in1008.1 mb 0.00 in0.0 mm 0.00 in0.0 mm 0.00 in0.0 mm
08:30 PM 34.4°F1.3°C 23.5°F-4.7°C 64% 2.4 mph E3.9 kmh E 10.3 mph16.6 kmh 29.77 in1008.1 mb 0.00 in0.0 mm 0.00 in0.0 mm 0.00 in0.0 mm
08:45 PM 34.2°F1.2°C 23.3°F-4.8°C 64% 1.9 mph E3.1 kmh E 6.7 mph10.8 kmh 29.77 in1008.1 mb 0.00 in0.0 mm 0.00 in0.0 mm 0.00 in0.0 mm
09:00 PM 33.9°F1.1°C 24.1°F-4.4°C 67% 1.7 mph E2.7 kmh E 6.7 mph10.8 kmh 29.77 in1008.1 mb 0.00 in0.0 mm 0.00 in0.0 mm 0.00 in0.0 mm
09:15 PM 33.3°F0.7°C 24.3°F-4.3°C 69% 2.1 mph E3.4 kmh E 6.7 mph10.8 kmh 29.76 in1007.8 mb 0.00 in0.0 mm 0.00 in0.0 mm 0.00 in0.0 mm
09:30 PM 32.8°F0.4°C 24.8°F-4.0°C 72% 1.7 mph ENE2.7 kmh ENE 11.5 mph18.5 kmh 29.76 in1007.8 mb 0.00 in0.0 mm 0.00 in0.0 mm 0.00 in0.0 mm
09:45 PM 32.4°F0.2°C 25.4°F-3.7°C 75% 1.9 mph E3.1 kmh E 11.5 mph18.5 kmh 29.75 in1007.5 mb 0.00 in0.0 mm 0.00 in0.0 mm 0.00 in0.0 mm
10:00 PM 32.1°F0.1°C 25.4°F-3.7°C 76% 3.0 mph E4.8 kmh E 8.7 mph14.0 kmh 29.74 in1007.1 mb 0.00 in0.0 mm 0.00 in0.0 mm 0.00 in0.0 mm
10:15 PM 31.9°F-0.1°C 25.8°F-3.4°C 78% 1.8 mph E2.9 kmh E 5.6 mph9.0 kmh 29.74 in1007.1 mb 0.00 in0.0 mm 0.00 in0.0 mm 0.00 in0.0 mm
10:30 PM 31.2°F-0.4°C 25.4°F-3.7°C 79% 3.0 mph ENE4.8 kmh ENE 13.4 mph21.6 kmh 29.74 in1007.1 mb 0.00 in0.0 mm 0.00 in0.0 mm 0.00 in0.0 mm
10:45 PM 31.0°F-0.6°C 25.6°F-3.6°C 80% 2.1 mph E3.4 kmh E 9.5 mph15.3 kmh 29.73 in1006.8 mb 0.00 in0.0 mm 0.00 in0.0 mm 0.00 in0.0 mm
11:00 PM 31.0°F-0.6°C 26.1°F-3.3°C 82% 1.6 mph E2.6 kmh E 9.5 mph15.3 kmh 29.73 in1006.8 mb 0.00 in0.0 mm 0.00 in0.0 mm 0.00 in0.0 mm
11:15 PM 31.0°F-0.6°C 26.4°F-3.1°C 83% 1.9 mph ENE3.1 kmh ENE 10.3 mph16.6 kmh 29.72 in1006.4 mb 0.00 in0.0 mm 0.00 in0.0 mm 0.00 in0.0 mm
11:30 PM 31.0°F-0.6°C 26.7°F-2.9°C 84% 2.5 mph E4.0 kmh E 11.5 mph18.5 kmh 29.72 in1006.4 mb 0.00 in0.0 mm 0.00 in0.0 mm 0.00 in0.0 mm
11:45 PM 31.0°F-0.6°C 26.7°F-2.9°C 84% 2.7 mph ENE4.3 kmh ENE 10.3 mph16.6 kmh 29.71 in1006.1 mb 0.00 in0.0 mm 0.00 in0.0 mm 0.00 in0.0 mm